sensor_id;sensor_type;location;lat;lon;timestamp;temperature;humidity
67275;DHT22;55463;52.324;5.122;2023-02-28T00:00:30;3.31;89.32
67275;DHT22;55463;52.324;5.122;2023-02-28T00:02:56;3.34;89.54
67275;DHT22;55463;52.324;5.122;2023-02-28T00:05:23;3.34;89.60
67275;DHT22;55463;52.324;5.122;2023-02-28T00:07:49;3.34;89.81
67275;DHT22;55463;52.324;5.122;2023-02-28T00:10:21;3.40;89.37
67275;DHT22;55463;52.324;5.122;2023-02-28T00:12:49;3.35;89.36
67275;DHT22;55463;52.324;5.122;2023-02-28T00:15:14;3.41;89.39
67275;DHT22;55463;52.324;5.122;2023-02-28T00:17:40;3.37;89.29
67275;DHT22;55463;52.324;5.122;2023-02-28T00:20:07;3.40;89.16
67275;DHT22;55463;52.324;5.122;2023-02-28T00:22:42;3.51;88.72
67275;DHT22;55463;52.324;5.122;2023-02-28T00:25:09;3.54;88.57
67275;DHT22;55463;52.324;5.122;2023-02-28T00:27:36;3.57;88.51
67275;DHT22;55463;52.324;5.122;2023-02-28T00:30:02;3.69;88.12
67275;DHT22;55463;52.324;5.122;2023-02-28T00:32:29;3.64;88.38
67275;DHT22;55463;52.324;5.122;2023-02-28T00:34:55;3.71;88.26
67275;DHT22;55463;52.324;5.122;2023-02-28T00:37:20;3.59;88.53
67275;DHT22;55463;52.324;5.122;2023-02-28T00:39:45;3.61;88.61
67275;DHT22;55463;52.324;5.122;2023-02-28T00:42:11;3.58;88.45
67275;DHT22;55463;52.324;5.122;2023-02-28T00:44:36;3.64;88.58
67275;DHT22;55463;52.324;5.122;2023-02-28T00:47:01;3.55;89.03
67275;DHT22;55463;52.324;5.122;2023-02-28T00:49:27;3.55;89.11
67275;DHT22;55463;52.324;5.122;2023-02-28T00:51:54;3.61;89.00
67275;DHT22;55463;52.324;5.122;2023-02-28T00:54:20;3.59;89.16
67275;DHT22;55463;52.324;5.122;2023-02-28T00:56:45;3.62;89.27
67275;DHT22;55463;52.324;5.122;2023-02-28T00:59:14;3.64;89.17
67275;DHT22;55463;52.324;5.122;2023-02-28T01:01:40;3.68;88.90
67275;DHT22;55463;52.324;5.122;2023-02-28T01:04:06;3.79;88.86
67275;DHT22;55463;52.324;5.122;2023-02-28T01:06:32;3.74;89.04
67275;DHT22;55463;52.324;5.122;2023-02-28T01:08:58;3.79;88.91
67275;DHT22;55463;52.324;5.122;2023-02-28T01:11:24;3.76;89.08
67275;DHT22;55463;52.324;5.122;2023-02-28T01:13:50;3.83;89.14
67275;DHT22;55463;52.324;5.122;2023-02-28T01:16:16;3.76;89.63
67275;DHT22;55463;52.324;5.122;2023-02-28T01:18:41;3.78;89.91
67275;DHT22;55463;52.324;5.122;2023-02-28T01:21:09;3.75;90.34
67275;DHT22;55463;52.324;5.122;2023-02-28T01:23:35;3.76;90.56
67275;DHT22;55463;52.324;5.122;2023-02-28T01:26:08;3.71;90.76
67275;DHT22;55463;52.324;5.122;2023-02-28T01:28:34;3.71;91.03
67275;DHT22;55463;52.324;5.122;2023-02-28T01:30:59;3.68;91.20
67275;DHT22;55463;52.324;5.122;2023-02-28T01:33:25;3.68;91.40
67275;DHT22;55463;52.324;5.122;2023-02-28T01:36:07;3.68;91.51
67275;DHT22;55463;52.324;5.122;2023-02-28T01:38:34;3.67;91.41
67275;DHT22;55463;52.324;5.122;2023-02-28T01:41:00;3.68;91.44
67275;DHT22;55463;52.324;5.122;2023-02-28T01:43:26;3.65;91.33
67275;DHT22;55463;52.324;5.122;2023-02-28T01:45:53;3.62;91.32
67275;DHT22;55463;52.324;5.122;2023-02-28T02:02:43;3.51;91.50
67275;DHT22;55463;52.324;5.122;2023-02-28T02:05:15;3.55;91.69
67275;DHT22;55463;52.324;5.122;2023-02-28T02:07:43;3.51;91.63
67275;DHT22;55463;52.324;5.122;2023-02-28T02:38:20;3.78;91.60
67275;DHT22;55463;52.324;5.122;2023-02-28T02:43:45;3.79;91.50
67275;DHT22;55463;52.324;5.122;2023-02-28T02:46:22;3.81;91.70
67275;DHT22;55463;52.324;5.122;2023-02-28T02:48:49;3.87;91.38
67275;DHT22;55463;52.324;5.122;2023-02-28T02:51:19;3.90;91.28
67275;DHT22;55463;52.324;5.122;2023-02-28T02:53:55;3.82;92.44
67275;DHT22;55463;52.324;5.122;2023-02-28T02:56:25;3.76;93.46
67275;DHT22;55463;52.324;5.122;2023-02-28T02:58:54;3.79;92.38
67275;DHT22;55463;52.324;5.122;2023-02-28T03:01:24;3.74;92.24
67275;DHT22;55463;52.324;5.122;2023-02-28T03:03:59;3.85;89.78
67275;DHT22;55463;52.324;5.122;2023-02-28T03:06:26;3.81;89.47
67275;DHT22;55463;52.324;5.122;2023-02-28T03:08:51;3.79;89.41
67275;DHT22;55463;52.324;5.122;2023-02-28T03:11:17;3.82;89.09
67275;DHT22;55463;52.324;5.122;2023-02-28T03:25:16;3.87;86.88
67275;DHT22;55463;52.324;5.122;2023-02-28T03:30:39;3.79;87.65
67275;DHT22;55463;52.324;5.122;2023-02-28T03:33:16;3.83;87.68
67275;DHT22;55463;52.324;5.122;2023-02-28T03:35:47;3.87;87.00
67275;DHT22;55463;52.324;5.122;2023-02-28T03:40:46;3.86;87.02
67275;DHT22;55463;52.324;5.122;2023-02-28T03:43:13;3.75;87.93
67275;DHT22;55463;52.324;5.122;2023-02-28T03:45:41;3.75;87.85
67275;DHT22;55463;52.324;5.122;2023-02-28T03:48:26;3.71;88.25
67275;DHT22;55463;52.324;5.122;2023-02-28T03:50:55;3.71;87.98
67275;DHT22;55463;52.324;5.122;2023-02-28T03:53:34;3.72;88.16
67275;DHT22;55463;52.324;5.122;2023-02-28T03:56:19;3.79;87.73
67275;DHT22;55463;52.324;5.122;2023-02-28T03:58:56;3.76;87.92
67275;DHT22;55463;52.324;5.122;2023-02-28T04:01:42;3.86;87.19
67275;DHT22;55463;52.324;5.122;2023-02-28T04:04:09;3.79;87.78
67275;DHT22;55463;52.324;5.122;2023-02-28T04:06:36;3.75;88.27
67275;DHT22;55463;52.324;5.122;2023-02-28T04:09:03;3.74;88.08
67275;DHT22;55463;52.324;5.122;2023-02-28T04:11:46;3.78;88.41
67275;DHT22;55463;52.324;5.122;2023-02-28T04:14:14;3.78;88.19
67275;DHT22;55463;52.324;5.122;2023-02-28T04:16:40;3.82;88.52
67275;DHT22;55463;52.324;5.122;2023-02-28T04:19:08;3.74;89.00
67275;DHT22;55463;52.324;5.122;2023-02-28T04:21:39;3.72;89.12
67275;DHT22;55463;52.324;5.122;2023-02-28T04:24:05;3.69;89.13
67275;DHT22;55463;52.324;5.122;2023-02-28T04:26:36;3.65;89.46
67275;DHT22;55463;52.324;5.122;2023-02-28T04:29:03;3.68;89.58
67275;DHT22;55463;52.324;5.122;2023-02-28T04:31:29;3.67;89.61
67275;DHT22;55463;52.324;5.122;2023-02-28T04:33:55;3.69;89.31
67275;DHT22;55463;52.324;5.122;2023-02-28T04:36:20;3.81;88.71
67275;DHT22;55463;52.324;5.122;2023-02-28T04:38:48;3.74;88.90
67275;DHT22;55463;52.324;5.122;2023-02-28T04:41:13;3.76;88.59
67275;DHT22;55463;52.324;5.122;2023-02-28T04:43:38;3.67;89.70
67275;DHT22;55463;52.324;5.122;2023-02-28T04:46:05;3.51;92.00
67275;DHT22;55463;52.324;5.122;2023-02-28T04:48:32;3.47;91.42
67275;DHT22;55463;52.324;5.122;2023-02-28T04:51:03;3.42;91.67
67275;DHT22;55463;52.324;5.122;2023-02-28T04:53:29;3.33;93.12
67275;DHT22;55463;52.324;5.122;2023-02-28T04:55:55;3.27;92.94
67275;DHT22;55463;52.324;5.122;2023-02-28T04:58:21;3.16;96.53
67275;DHT22;55463;52.324;5.122;2023-02-28T05:00:48;3.07;97.05
67275;DHT22;55463;52.324;5.122;2023-02-28T05:03:13;3.03;96.79
67275;DHT22;55463;52.324;5.122;2023-02-28T05:05:39;2.95;96.45
67275;DHT22;55463;52.324;5.122;2023-02-28T05:08:04;2.91;97.30
67275;DHT22;55463;52.324;5.122;2023-02-28T05:10:30;2.84;98.03
67275;DHT22;55463;52.324;5.122;2023-02-28T05:12:56;2.77;98.90
67275;DHT22;55463;52.324;5.122;2023-02-28T05:15:21;2.78;98.10
67275;DHT22;55463;52.324;5.122;2023-02-28T05:17:46;2.77;98.12
67275;DHT22;55463;52.324;5.122;2023-02-28T05:20:12;2.74;97.42
67275;DHT22;55463;52.324;5.122;2023-02-28T05:22:39;2.77;97.30
67275;DHT22;55463;52.324;5.122;2023-02-28T05:25:05;2.72;97.35
67275;DHT22;55463;52.324;5.122;2023-02-28T05:27:31;2.74;97.80
67275;DHT22;55463;52.324;5.122;2023-02-28T05:29:56;2.68;98.32
67275;DHT22;55463;52.324;5.122;2023-02-28T05:32:22;2.61;99.48
67275;DHT22;55463;52.324;5.122;2023-02-28T05:34:47;2.58;99.95
67275;DHT22;55463;52.324;5.122;2023-02-28T05:37:14;2.55;99.99
67275;DHT22;55463;52.324;5.122;2023-02-28T05:39:41;2.55;99.78
67275;DHT22;55463;52.324;5.122;2023-02-28T05:42:07;2.51;99.99
67275;DHT22;55463;52.324;5.122;2023-02-28T05:44:32;2.50;99.75
67275;DHT22;55463;52.324;5.122;2023-02-28T05:46:58;2.44;99.99
67275;DHT22;55463;52.324;5.122;2023-02-28T05:49:23;2.45;99.99
67275;DHT22;55463;52.324;5.122;2023-02-28T05:51:49;2.40;99.99
67275;DHT22;55463;52.324;5.122;2023-02-28T05:54:15;2.40;99.99
67275;DHT22;55463;52.324;5.122;2023-02-28T05:56:40;2.38;99.99
67275;DHT22;55463;52.324;5.122;2023-02-28T05:59:09;2.38;99.99
67275;DHT22;55463;52.324;5.122;2023-02-28T06:01:40;2.37;99.99
67275;DHT22;55463;52.324;5.122;2023-02-28T06:04:09;2.40;99.99
67275;DHT22;55463;52.324;5.122;2023-02-28T06:06:35;2.37;99.99
67275;DHT22;55463;52.324;5.122;2023-02-28T06:09:03;2.37;99.99
67275;DHT22;55463;52.324;5.122;2023-02-28T06:11:28;2.38;99.99
67275;DHT22;55463;52.324;5.122;2023-02-28T06:13:55;2.32;99.99
67275;DHT22;55463;52.324;5.122;2023-02-28T06:16:21;2.23;99.99
67275;DHT22;55463;52.324;5.122;2023-02-28T06:18:47;2.06;99.99
67275;DHT22;55463;52.324;5.122;2023-02-28T06:21:13;1.94;99.99
67275;DHT22;55463;52.324;5.122;2023-02-28T06:23:38;1.81;99.99
67275;DHT22;55463;52.324;5.122;2023-02-28T06:26:04;1.68;99.99
67275;DHT22;55463;52.324;5.122;2023-02-28T06:28:30;1.60;99.99
67275;DHT22;55463;52.324;5.122;2023-02-28T06:30:56;1.51;99.99
67275;DHT22;55463;52.324;5.122;2023-02-28T06:33:21;1.41;99.99
67275;DHT22;55463;52.324;5.122;2023-02-28T06:35:50;1.30;99.99
67275;DHT22;55463;52.324;5.122;2023-02-28T06:38:15;1.19;99.99
67275;DHT22;55463;52.324;5.122;2023-02-28T06:40:41;1.12;99.99
67275;DHT22;55463;52.324;5.122;2023-02-28T06:43:06;1.09;99.99
67275;DHT22;55463;52.324;5.122;2023-02-28T06:45:32;1.03;99.99
67275;DHT22;55463;52.324;5.122;2023-02-28T06:47:57;1.00;99.99
67275;DHT22;55463;52.324;5.122;2023-02-28T06:50:23;0.96;99.99
67275;DHT22;55463;52.324;5.122;2023-02-28T06:52:49;0.98;99.99
67275;DHT22;55463;52.324;5.122;2023-02-28T06:55:19;0.96;99.99
67275;DHT22;55463;52.324;5.122;2023-02-28T06:57:44;1.02;99.99
67275;DHT22;55463;52.324;5.122;2023-02-28T07:00:10;1.02;99.99
67275;DHT22;55463;52.324;5.122;2023-02-28T07:02:36;0.96;99.99
67275;DHT22;55463;52.324;5.122;2023-02-28T07:05:03;0.95;99.99
67275;DHT22;55463;52.324;5.122;2023-02-28T07:07:28;0.92;99.99
67275;DHT22;55463;52.324;5.122;2023-02-28T07:09:54;0.87;99.99
67275;DHT22;55463;52.324;5.122;2023-02-28T07:12:19;0.82;99.99
67275;DHT22;55463;52.324;5.122;2023-02-28T07:14:45;0.81;99.99
67275;DHT22;55463;52.324;5.122;2023-02-28T07:17:10;0.82;99.99
67275;DHT22;55463;52.324;5.122;2023-02-28T07:19:38;0.79;99.99
67275;DHT22;55463;52.324;5.122;2023-02-28T07:22:04;0.74;99.99
67275;DHT22;55463;52.324;5.122;2023-02-28T07:24:30;0.75;99.99
67275;DHT22;55463;52.324;5.122;2023-02-28T07:26:55;0.71;99.99
67275;DHT22;55463;52.324;5.122;2023-02-28T07:29:21;0.67;99.99
67275;DHT22;55463;52.324;5.122;2023-02-28T07:31:46;0.62;99.99
67275;DHT22;55463;52.324;5.122;2023-02-28T07:34:13;0.64;99.99
67275;DHT22;55463;52.324;5.122;2023-02-28T07:36:39;0.60;99.99
67275;DHT22;55463;52.324;5.122;2023-02-28T07:39:04;0.61;99.99
67275;DHT22;55463;52.324;5.122;2023-02-28T07:41:30;0.62;99.99
67275;DHT22;55463;52.324;5.122;2023-02-28T07:43:58;0.65;99.99
67275;DHT22;55463;52.324;5.122;2023-02-28T07:46:25;0.65;99.99
67275;DHT22;55463;52.324;5.122;2023-02-28T07:48:51;0.68;99.99
67275;DHT22;55463;52.324;5.122;2023-02-28T07:51:18;0.74;99.99
67275;DHT22;55463;52.324;5.122;2023-02-28T07:53:43;0.81;99.99
67275;DHT22;55463;52.324;5.122;2023-02-28T07:56:09;0.87;99.99
67275;DHT22;55463;52.324;5.122;2023-02-28T07:58:35;0.96;99.99
67275;DHT22;55463;52.324;5.122;2023-02-28T08:01:09;1.02;99.99
67275;DHT22;55463;52.324;5.122;2023-02-28T08:03:35;1.07;99.99
67275;DHT22;55463;52.324;5.122;2023-02-28T08:06:02;1.19;99.99
67275;DHT22;55463;52.324;5.122;2023-02-28T08:08:28;1.23;99.99
67275;DHT22;55463;52.324;5.122;2023-02-28T08:10:59;1.33;99.99
67275;DHT22;55463;52.324;5.122;2023-02-28T08:13:25;1.41;99.99
67275;DHT22;55463;52.324;5.122;2023-02-28T08:15:52;1.52;99.99
67275;DHT22;55463;52.324;5.122;2023-02-28T08:18:17;1.65;99.99
67275;DHT22;55463;52.324;5.122;2023-02-28T08:20:43;1.77;99.99
67275;DHT22;55463;52.324;5.122;2023-02-28T08:23:08;1.88;99.99
67275;DHT22;55463;52.324;5.122;2023-02-28T08:25:33;1.98;99.99
67275;DHT22;55463;52.324;5.122;2023-02-28T08:27:59;2.06;99.99
67275;DHT22;55463;52.324;5.122;2023-02-28T08:30:24;2.14;99.99
67275;DHT22;55463;52.324;5.122;2023-02-28T08:32:50;2.22;99.99
67275;DHT22;55463;52.324;5.122;2023-02-28T08:35:15;2.29;99.99
67275;DHT22;55463;52.324;5.122;2023-02-28T08:37:40;2.37;99.99
67275;DHT22;55463;52.324;5.122;2023-02-28T08:40:07;2.38;99.99
67275;DHT22;55463;52.324;5.122;2023-02-28T08:42:32;2.41;99.99
67275;DHT22;55463;52.324;5.122;2023-02-28T08:44:58;2.47;99.99
67275;DHT22;55463;52.324;5.122;2023-02-28T08:47:23;2.51;99.99
67275;DHT22;55463;52.324;5.122;2023-02-28T08:49:48;2.54;99.99
67275;DHT22;55463;52.324;5.122;2023-02-28T08:52:14;2.55;99.99
67275;DHT22;55463;52.324;5.122;2023-02-28T08:54:39;2.65;99.99
67275;DHT22;55463;52.324;5.122;2023-02-28T08:57:05;2.78;99.99
67275;DHT22;55463;52.324;5.122;2023-02-28T08:59:30;2.92;99.99
67275;DHT22;55463;52.324;5.122;2023-02-28T09:01:56;3.09;99.99
67275;DHT22;55463;52.324;5.122;2023-02-28T09:04:23;3.27;99.99
67275;DHT22;55463;52.324;5.122;2023-02-28T09:06:49;3.38;99.99
67275;DHT22;55463;52.324;5.122;2023-02-28T09:09:15;3.52;99.99
67275;DHT22;55463;52.324;5.122;2023-02-28T09:11:41;3.67;99.99
67275;DHT22;55463;52.324;5.122;2023-02-28T09:14:06;3.76;99.38
67275;DHT22;55463;52.324;5.122;2023-02-28T09:16:33;3.87;99.93
67275;DHT22;55463;52.324;5.122;2023-02-28T09:18:58;3.99;99.35
67275;DHT22;55463;52.324;5.122;2023-02-28T09:21:24;3.99;98.84
67275;DHT22;55463;52.324;5.122;2023-02-28T09:23:50;3.97;98.88
67275;DHT22;55463;52.324;5.122;2023-02-28T09:26:25;4.03;99.11
67275;DHT22;55463;52.324;5.122;2023-02-28T09:28:51;4.20;99.61
67275;DHT22;55463;52.324;5.122;2023-02-28T09:31:22;4.41;98.71
67275;DHT22;55463;52.324;5.122;2023-02-28T09:33:49;4.58;98.29
67275;DHT22;55463;52.324;5.122;2023-02-28T09:36:14;4.64;97.30
67275;DHT22;55463;52.324;5.122;2023-02-28T09:38:42;4.79;98.01
67275;DHT22;55463;52.324;5.122;2023-02-28T09:41:16;4.87;96.92
67275;DHT22;55463;52.324;5.122;2023-02-28T09:43:45;4.79;95.74
67275;DHT22;55463;52.324;5.122;2023-02-28T09:46:43;4.78;96.27
67275;DHT22;55463;52.324;5.122;2023-02-28T09:49:16;4.68;95.22
67275;DHT22;55463;52.324;5.122;2023-02-28T09:54:18;4.68;95.61
67275;DHT22;55463;52.324;5.122;2023-02-28T09:56:50;4.80;95.82
67275;DHT22;55463;52.324;5.122;2023-02-28T09:59:41;4.97;93.85
67275;DHT22;55463;52.324;5.122;2023-02-28T10:02:24;4.99;93.23
67275;DHT22;55463;52.324;5.122;2023-02-28T10:05:00;5.06;93.86
67275;DHT22;55463;52.324;5.122;2023-02-28T10:10:20;5.16;92.74
67275;DHT22;55463;52.324;5.122;2023-02-28T10:12:47;5.24;93.38
67275;DHT22;55463;52.324;5.122;2023-02-28T10:15:16;5.38;92.02
67275;DHT22;55463;52.324;5.122;2023-02-28T10:17:45;5.49;89.90
67275;DHT22;55463;52.324;5.122;2023-02-28T10:20:14;5.75;90.13
67275;DHT22;55463;52.324;5.122;2023-02-28T10:25:37;6.16;90.44
67275;DHT22;55463;52.324;5.122;2023-02-28T10:28:10;6.37;90.99
67275;DHT22;55463;52.324;5.122;2023-02-28T10:30:42;6.49;89.38
67275;DHT22;55463;52.324;5.122;2023-02-28T10:33:18;6.65;88.02
67275;DHT22;55463;52.324;5.122;2023-02-28T10:35:44;6.62;85.74
67275;DHT22;55463;52.324;5.122;2023-02-28T10:38:16;6.90;88.09
67275;DHT22;55463;52.324;5.122;2023-02-28T10:40:42;6.97;83.70
67275;DHT22;55463;52.324;5.122;2023-02-28T10:43:28;7.10;87.69
67275;DHT22;55463;52.324;5.122;2023-02-28T10:45:58;7.07;84.84
67275;DHT22;55463;52.324;5.122;2023-02-28T10:48:32;7.18;84.54
67275;DHT22;55463;52.324;5.122;2023-02-28T10:50:58;7.35;86.55
67275;DHT22;55463;52.324;5.122;2023-02-28T10:53:28;7.32;83.54
67275;DHT22;55463;52.324;5.122;2023-02-28T10:58:45;7.00;80.65
67275;DHT22;55463;52.324;5.122;2023-02-28T11:01:23;6.52;79.23
67275;DHT22;55463;52.324;5.122;2023-02-28T11:03:53;6.22;81.19
67275;DHT22;55463;52.324;5.122;2023-02-28T11:06:22;6.24;84.36
67275;DHT22;55463;52.324;5.122;2023-02-28T11:08:54;6.55;80.82
67275;DHT22;55463;52.324;5.122;2023-02-28T11:11:21;6.71;77.43
67275;DHT22;55463;52.324;5.122;2023-02-28T11:13:51;6.73;78.07
67275;DHT22;55463;52.324;5.122;2023-02-28T11:16:17;6.92;77.81
67275;DHT22;55463;52.324;5.122;2023-02-28T11:18:51;6.85;78.56
67275;DHT22;55463;52.324;5.122;2023-02-28T11:21:22;7.03;81.60
67275;DHT22;55463;52.324;5.122;2023-02-28T11:23:50;7.22;77.55
67275;DHT22;55463;52.324;5.122;2023-02-28T11:26:16;7.47;80.75
67275;DHT22;55463;52.324;5.122;2023-02-28T11:29:23;7.72;80.68
67275;DHT22;55463;52.324;5.122;2023-02-28T11:34:39;7.76;76.34
67275;DHT22;55463;52.324;5.122;2023-02-28T11:37:12;7.86;77.55
67275;DHT22;55463;52.324;5.122;2023-02-28T11:39:38;7.84;75.09
67275;DHT22;55463;52.324;5.122;2023-02-28T11:45:07;7.24;75.79
67275;DHT22;55463;52.324;5.122;2023-02-28T12:07:17;4.82;75.55
67275;DHT22;55463;52.324;5.122;2023-02-28T12:10:33;4.79;75.20
67275;DHT22;55463;52.324;5.122;2023-02-28T12:13:04;4.76;73.07
67275;DHT22;55463;52.324;5.122;2023-02-28T12:16:00;4.62;75.60
67275;DHT22;55463;52.324;5.122;2023-02-28T12:21:48;4.80;71.29
67275;DHT22;55463;52.324;5.122;2023-02-28T12:27:05;4.85;74.43
67275;DHT22;55463;52.324;5.122;2023-02-28T12:29:46;4.83;74.08
67275;DHT22;55463;52.324;5.122;2023-02-28T12:32:26;4.86;72.48
67275;DHT22;55463;52.324;5.122;2023-02-28T12:35:02;4.82;74.03
67275;DHT22;55463;52.324;5.122;2023-02-28T12:40:12;4.86;74.31
67275;DHT22;55463;52.324;5.122;2023-02-28T12:42:45;4.90;72.83
67275;DHT22;55463;52.324;5.122;2023-02-28T12:45:21;4.83;75.43
67275;DHT22;55463;52.324;5.122;2023-02-28T12:47:51;4.87;75.66
67275;DHT22;55463;52.324;5.122;2023-02-28T12:50:18;4.85;74.30
67275;DHT22;55463;52.324;5.122;2023-02-28T12:53:06;4.86;75.79
67275;DHT22;55463;52.324;5.122;2023-02-28T12:55:54;4.83;78.19
67275;DHT22;55463;52.324;5.122;2023-02-28T12:58:41;4.65;78.54
67275;DHT22;55463;52.324;5.122;2023-02-28T13:06:33;4.57;80.85
67275;DHT22;55463;52.324;5.122;2023-02-28T13:09:11;4.45;82.07
67275;DHT22;55463;52.324;5.122;2023-02-28T13:11:50;4.48;81.04
67275;DHT22;55463;52.324;5.122;2023-02-28T13:14:26;4.37;80.48
67275;DHT22;55463;52.324;5.122;2023-02-28T13:19:36;4.41;82.45
67275;DHT22;55463;52.324;5.122;2023-02-28T13:22:02;4.42;81.93
67275;DHT22;55463;52.324;5.122;2023-02-28T13:29:35;4.29;81.92
67275;DHT22;55463;52.324;5.122;2023-02-28T13:34:38;4.23;82.44
67275;DHT22;55463;52.324;5.122;2023-02-28T13:37:41;4.25;83.22
67275;DHT22;55463;52.324;5.122;2023-02-28T13:40:31;4.38;84.57
67275;DHT22;55463;52.324;5.122;2023-02-28T13:43:02;4.42;84.40
67275;DHT22;55463;52.324;5.122;2023-02-28T13:45:29;4.64;84.83
67275;DHT22;55463;52.324;5.122;2023-02-28T13:48:00;4.99;83.41
67275;DHT22;55463;52.324;5.122;2023-02-28T13:53:03;5.44;81.99
67275;DHT22;55463;52.324;5.122;2023-02-28T14:00:59;5.59;81.34
67275;DHT22;55463;52.324;5.122;2023-02-28T14:08:56;5.69;81.80
67275;DHT22;55463;52.324;5.122;2023-02-28T14:11:43;5.83;79.69
67275;DHT22;55463;52.324;5.122;2023-02-28T14:17:12;5.76;80.52
67275;DHT22;55463;52.324;5.122;2023-02-28T14:19:39;5.73;80.74
67275;DHT22;55463;52.324;5.122;2023-02-28T14:25:33;5.13;82.78
67275;DHT22;55463;52.324;5.122;2023-02-28T14:31:34;4.85;83.05
67275;DHT22;55463;52.324;5.122;2023-02-28T14:34:26;5.00;81.80
67275;DHT22;55463;52.324;5.122;2023-02-28T14:36:58;5.19;82.07
67275;DHT22;55463;52.324;5.122;2023-02-28T14:39:26;5.40;80.74
67275;DHT22;55463;52.324;5.122;2023-02-28T14:41:52;5.54;80.04
67275;DHT22;55463;52.324;5.122;2023-02-28T14:46:50;5.87;79.75
67275;DHT22;55463;52.324;5.122;2023-02-28T14:49:38;5.99;77.84
67275;DHT22;55463;52.324;5.122;2023-02-28T14:52:26;5.99;77.67
67275;DHT22;55463;52.324;5.122;2023-02-28T14:57:31;6.13;76.42
67275;DHT22;55463;52.324;5.122;2023-02-28T15:02:37;5.99;77.47
67275;DHT22;55463;52.324;5.122;2023-02-28T15:07:48;6.11;77.35
67275;DHT22;55463;52.324;5.122;2023-02-28T15:10:25;6.27;76.81
67275;DHT22;55463;52.324;5.122;2023-02-28T15:12:56;6.30;77.49
67275;DHT22;55463;52.324;5.122;2023-02-28T15:15:34;6.21;77.18
67275;DHT22;55463;52.324;5.122;2023-02-28T15:18:02;6.11;77.98
67275;DHT22;55463;52.324;5.122;2023-02-28T15:20:31;5.87;77.27
67275;DHT22;55463;52.324;5.122;2023-02-28T15:22:57;5.48;79.11
67275;DHT22;55463;52.324;5.122;2023-02-28T15:25:23;5.17;79.81
67275;DHT22;55463;52.324;5.122;2023-02-28T15:27:50;5.00;81.88
67275;DHT22;55463;52.324;5.122;2023-02-28T15:30:26;4.86;82.65
67275;DHT22;55463;52.324;5.122;2023-02-28T15:35:37;4.76;82.58
67275;DHT22;55463;52.324;5.122;2023-02-28T15:38:25;4.64;83.23
67275;DHT22;55463;52.324;5.122;2023-02-28T15:40:56;4.67;83.48
67275;DHT22;55463;52.324;5.122;2023-02-28T15:43:23;4.62;83.72
67275;DHT22;55463;52.324;5.122;2023-02-28T15:45:51;4.58;84.63
67275;DHT22;55463;52.324;5.122;2023-02-28T15:48:24;4.62;81.71
67275;DHT22;55463;52.324;5.122;2023-02-28T15:53:48;4.62;80.30
67275;DHT22;55463;52.324;5.122;2023-02-28T15:56:44;4.65;80.44
67275;DHT22;55463;52.324;5.122;2023-02-28T15:59:28;4.78;80.65
67275;DHT22;55463;52.324;5.122;2023-02-28T16:04:29;5.37;79.87
67275;DHT22;55463;52.324;5.122;2023-02-28T16:09:25;5.72;79.66
67275;DHT22;55463;52.324;5.122;2023-02-28T16:11:54;5.80;78.62
67275;DHT22;55463;52.324;5.122;2023-02-28T16:14:22;5.94;79.29
67275;DHT22;55463;52.324;5.122;2023-02-28T16:16:54;5.93;78.35
67275;DHT22;55463;52.324;5.122;2023-02-28T16:19:20;5.97;77.56
67275;DHT22;55463;52.324;5.122;2023-02-28T16:21:46;6.02;76.18
67275;DHT22;55463;52.324;5.122;2023-02-28T16:24:14;6.18;75.82
67275;DHT22;55463;52.324;5.122;2023-02-28T16:26:45;6.20;75.18
67275;DHT22;55463;52.324;5.122;2023-02-28T16:29:33;6.22;74.85
67275;DHT22;55463;52.324;5.122;2023-02-28T16:32:00;6.18;74.81
67275;DHT22;55463;52.324;5.122;2023-02-28T16:34:26;6.13;74.13
67275;DHT22;55463;52.324;5.122;2023-02-28T16:36:52;6.03;75.11
67275;DHT22;55463;52.324;5.122;2023-02-28T16:39:18;5.93;76.47
67275;DHT22;55463;52.324;5.122;2023-02-28T16:41:47;5.82;77.98
67275;DHT22;55463;52.324;5.122;2023-02-28T16:46:46;5.41;78.59
67275;DHT22;55463;52.324;5.122;2023-02-28T16:49:12;5.07;79.47
67275;DHT22;55463;52.324;5.122;2023-02-28T16:51:40;4.79;80.34
67275;DHT22;55463;52.324;5.122;2023-02-28T16:54:05;4.59;80.28
67275;DHT22;55463;52.324;5.122;2023-02-28T16:56:31;4.45;79.72
67275;DHT22;55463;52.324;5.122;2023-02-28T16:58:59;4.13;80.82
67275;DHT22;55463;52.324;5.122;2023-02-28T17:01:26;3.97;81.78
67275;DHT22;55463;52.324;5.122;2023-02-28T17:03:52;3.85;81.50
67275;DHT22;55463;52.324;5.122;2023-02-28T17:06:27;3.85;82.28
67275;DHT22;55463;52.324;5.122;2023-02-28T17:08:56;3.68;83.38
67275;DHT22;55463;52.324;5.122;2023-02-28T17:11:22;3.51;84.32
67275;DHT22;55463;52.324;5.122;2023-02-28T17:13:47;3.44;85.16
67275;DHT22;55463;52.324;5.122;2023-02-28T17:16:28;3.42;85.23
67275;DHT22;55463;52.324;5.122;2023-02-28T17:18:57;3.24;86.00
67275;DHT22;55463;52.324;5.122;2023-02-28T17:21:23;3.23;86.44
67275;DHT22;55463;52.324;5.122;2023-02-28T17:23:49;3.22;85.83
67275;DHT22;55463;52.324;5.122;2023-02-28T17:26:16;2.97;86.36
67275;DHT22;55463;52.324;5.122;2023-02-28T17:28:46;2.88;86.61
67275;DHT22;55463;52.324;5.122;2023-02-28T17:31:12;2.81;87.17
67275;DHT22;55463;52.324;5.122;2023-02-28T17:33:37;2.61;87.92
67275;DHT22;55463;52.324;5.122;2023-02-28T17:36:03;2.68;88.24
67275;DHT22;55463;52.324;5.122;2023-02-28T17:38:29;2.72;88.45
67275;DHT22;55463;52.324;5.122;2023-02-28T17:40:54;2.71;88.74
67275;DHT22;55463;52.324;5.122;2023-02-28T17:43:25;2.65;89.11
67275;DHT22;55463;52.324;5.122;2023-02-28T17:45:52;2.71;89.19
67275;DHT22;55463;52.324;5.122;2023-02-28T17:48:20;2.78;89.00
67275;DHT22;55463;52.324;5.122;2023-02-28T17:50:45;2.81;88.76
67275;DHT22;55463;52.324;5.122;2023-02-28T17:53:11;2.69;89.27
67275;DHT22;55463;52.324;5.122;2023-02-28T17:55:36;2.68;89.39
67275;DHT22;55463;52.324;5.122;2023-02-28T17:58:03;2.62;89.77
67275;DHT22;55463;52.324;5.122;2023-02-28T18:00:29;2.61;90.09
67275;DHT22;55463;52.324;5.122;2023-02-28T18:02:58;2.60;90.31
67275;DHT22;55463;52.324;5.122;2023-02-28T18:05:26;2.48;90.52
67275;DHT22;55463;52.324;5.122;2023-02-28T18:07:52;2.45;90.91
67275;DHT22;55463;52.324;5.122;2023-02-28T18:10:21;2.44;91.39
67275;DHT22;55463;52.324;5.122;2023-02-28T18:12:50;2.44;91.56
67275;DHT22;55463;52.324;5.122;2023-02-28T18:15:18;2.43;91.71
67275;DHT22;55463;52.324;5.122;2023-02-28T18:17:48;2.34;91.91
67275;DHT22;55463;52.324;5.122;2023-02-28T18:20:14;2.27;92.46
67275;DHT22;55463;52.324;5.122;2023-02-28T18:22:40;2.29;92.75
67275;DHT22;55463;52.324;5.122;2023-02-28T18:25:08;2.33;92.70
67275;DHT22;55463;52.324;5.122;2023-02-28T18:27:35;2.29;92.73
67275;DHT22;55463;52.324;5.122;2023-02-28T18:30:01;2.27;92.78
67275;DHT22;55463;52.324;5.122;2023-02-28T18:32:28;2.27;92.73
67275;DHT22;55463;52.324;5.122;2023-02-28T18:34:53;2.24;93.16
67275;DHT22;55463;52.324;5.122;2023-02-28T18:37:19;2.24;93.16
67275;DHT22;55463;52.324;5.122;2023-02-28T18:39:45;2.19;93.56
67275;DHT22;55463;52.324;5.122;2023-02-28T18:42:10;2.29;93.59
67275;DHT22;55463;52.324;5.122;2023-02-28T18:44:36;2.29;93.42
67275;DHT22;55463;52.324;5.122;2023-02-28T18:47:02;2.17;93.90